Time;durP1;ratioP1;P1;durP2;ratioP2;P2;SDS_P1;SDS_P2;PMS_P1;PMS_P2;Temp;Humidity;BMP_temperature;BMP_pressure;BME280_temperature;BME280_humidity;BME280_pressure;Samples;Min_cycle;Max_cycle;Signal;HPM_P1;HPM_P2
2023/09/07 00:02:12;;;;;;;0.28;0.28;;;22.90;54.10;;;;;;6336332;22;20199;-86
2023/09/07 00:04:41;;;;;;;0.32;0.32;;;22.90;54.20;;;;;;6309464;22;20206;-85
2023/09/07 00:07:10;;;;;;;0.20;0.20;;;22.80;54.20;;;;;;6310380;22;20174;-85
2023/09/07 00:09:38;;;;;;;6.13;0.85;;;22.80;54.30;;;;;;6336365;22;20168;-85
2023/09/07 00:12:08;;;;;;;0.28;0.28;;;22.80;54.40;;;;;;6336952;22;20540;-85
2023/09/07 00:14:36;;;;;;;4.43;0.50;;;22.80;54.40;;;;;;6309969;22;20166;-85
2023/09/07 00:17:05;;;;;;;0.30;0.30;;;22.70;54.40;;;;;;6336820;22;20168;-83
2023/09/07 00:19:36;;;;;;;1.75;0.73;;;22.70;54.50;;;;;;6336490;22;20249;-84
2023/09/07 00:22:05;;;;;;;0.50;0.47;;;22.70;54.60;;;;;;6337139;22;20244;-86
2023/09/07 00:24:34;;;;;;;0.35;0.32;;;22.70;55.20;;;;;;6307369;22;20168;-85
2023/09/07 00:27:05;;;;;;;1.17;0.90;;;22.60;54.50;;;;;;6309910;22;20217;-86
2023/09/07 00:29:34;;;;;;;0.30;0.30;;;22.60;54.50;;;;;;6310103;22;20156;-83
2023/09/07 00:32:04;;;;;;;0.55;0.40;;;22.60;54.60;;;;;;6336866;22;20213;-84
2023/09/07 00:34:32;;;;;;;0.60;0.60;;;22.60;54.70;;;;;;6283794;22;20214;-86
2023/09/07 00:37:03;;;;;;;0.40;0.35;;;22.50;54.70;;;;;;6337183;22;20629;-84
2023/09/07 00:39:32;;;;;;;0.22;0.22;;;22.50;54.70;;;;;;6335382;22;20203;-84
2023/09/07 00:42:00;;;;;;;0.95;0.45;;;22.50;54.70;;;;;;6336499;22;20164;-87
2023/09/07 00:44:29;;;;;;;0.30;0.30;;;22.50;54.70;;;;;;6335320;22;20164;-85
2023/09/07 00:46:58;;;;;;;0.98;0.98;;;22.50;54.80;;;;;;6338474;22;20271;-84
2023/09/07 00:49:27;;;;;;;3.13;0.55;;;22.40;54.70;;;;;;6336906;22;20164;-85
2023/09/07 00:51:58;;;;;;;0.80;0.63;;;22.40;54.80;;;;;;6309210;22;20160;-86
2023/09/07 00:54:30;;;;;;;0.30;0.30;;;22.40;55.00;;;;;;6338069;22;20161;-85
2023/09/07 00:56:59;;;;;;;0.22;0.22;;;22.40;55.00;;;;;;6339575;22;20176;-86
2023/09/07 00:59:27;;;;;;;0.52;0.40;;;22.40;55.10;;;;;;6336084;22;20192;-84
2023/09/07 01:01:58;;;;;;;0.52;0.47;;;22.30;55.10;;;;;;6336071;22;20204;-86
2023/09/07 01:04:27;;;;;;;0.50;0.40;;;22.20;55.10;;;;;;6338029;22;20199;-86
2023/09/07 01:07:00;;;;;;;0.40;0.40;;;22.30;55.10;;;;;;6337891;22;20171;-85
2023/09/07 01:09:33;;;;;;;2.72;0.57;;;22.20;55.20;;;;;;6336477;22;20164;-85
2023/09/07 01:12:01;;;;;;;0.40;0.40;;;22.20;55.20;;;;;;6337381;22;21136;-85
2023/09/07 01:14:30;;;;;;;1.38;0.68;;;22.10;55.20;;;;;;6311894;22;20533;-85
2023/09/07 01:16:59;;;;;;;0.32;0.32;;;22.10;55.30;;;;;;6339224;22;20198;-85
2023/09/07 01:19:28;;;;;;;1.55;0.63;;;22.10;55.40;;;;;;6337810;22;20214;-86
2023/09/07 01:22:03;;;;;;;0.65;0.57;;;22.10;55.50;;;;;;6338913;22;20165;-85
2023/09/07 01:24:34;;;;;;;0.20;0.20;;;22.10;55.50;;;;;;6339069;22;20624;-83
2023/09/07 01:27:04;;;;;;;0.40;0.40;;;22.00;55.60;;;;;;6339335;22;20523;-85
2023/09/07 01:29:33;;;;;;;0.57;0.40;;;22.00;55.80;;;;;;6311800;22;20600;-87
2023/09/07 01:32:02;;;;;;;0.45;0.35;;;22.00;55.90;;;;;;6338442;22;20165;-86
2023/09/07 01:34:31;;;;;;;0.50;0.35;;;21.90;56.00;;;;;;6337879;22;20219;-86
2023/09/07 01:37:01;;;;;;;0.57;0.35;;;21.90;56.10;;;;;;6346533;22;20168;-86
2023/09/07 01:39:30;;;;;;;0.38;0.38;;;21.80;56.10;;;;;;6332548;22;20206;-84
2023/09/07 01:42:00;;;;;;;0.63;0.40;;;21.80;56.30;;;;;;6336945;22;20163;-86
2023/09/07 01:44:29;;;;;;;0.77;0.47;;;21.80;56.40;;;;;;6336804;22;20198;-85
2023/09/07 01:46:59;;;;;;;0.25;0.25;;;21.80;56.50;;;;;;6361302;22;20216;-84
2023/09/07 01:49:30;;;;;;;0.20;0.20;;;21.70;56.50;;;;;;6366546;22;20267;-83
2023/09/07 01:52:01;;;;;;;0.50;0.50;;;21.70;56.70;;;;;;6341458;22;20857;-84
2023/09/07 01:54:30;;;;;;;0.40;0.30;;;21.70;56.80;;;;;;6340776;22;20195;-87
2023/09/07 01:57:00;;;;;;;0.33;0.33;;;21.70;56.80;;;;;;6341253;22;20199;-88
2023/09/07 01:59:29;;;;;;;0.47;0.47;;;21.70;56.90;;;;;;6340565;22;20206;-85
2023/09/07 02:02:01;;;;;;;0.43;0.43;;;21.60;57.10;;;;;;6313401;22;20225;-86
2023/09/07 02:04:29;;;;;;;0.37;0.37;;;21.60;57.30;;;;;;6312514;22;20211;-84
2023/09/07 02:06:58;;;;;;;0.30;0.30;;;21.60;57.20;;;;;;6336298;22;20169;-86
2023/09/07 02:09:29;;;;;;;1.80;1.03;;;21.50;57.30;;;;;;6338484;22;20617;-86
2023/09/07 02:11:58;;;;;;;0.40;0.40;;;21.50;57.40;;;;;;6310091;22;20188;-84
2023/09/07 02:14:26;;;;;;;0.50;0.50;;;21.50;58.10;;;;;;6337736;22;20168;-85
2023/09/07 02:16:55;;;;;;;0.40;0.30;;;21.40;57.30;;;;;;6338120;22;20170;-84
2023/09/07 02:19:25;;;;;;;0.30;0.30;;;21.40;57.50;;;;;;6337154;22;20196;-85
2023/09/07 02:21:54;;;;;;;1.20;0.47;;;21.40;57.80;;;;;;6338440;22;20226;-85
2023/09/07 02:24:23;;;;;;;0.70;0.70;;;21.30;58.00;;;;;;6285060;22;20168;-85
2023/09/07 02:26:53;;;;;;;0.73;0.37;;;21.30;57.90;;;;;;6311538;22;20165;-86
2023/09/07 02:29:22;;;;;;;0.30;0.30;;;21.30;58.20;;;;;;6335259;22;20168;-87
2023/09/07 02:31:50;;;;;;;2.83;0.33;;;21.30;58.10;;;;;;6337221;22;20211;-85
2023/09/07 02:34:19;;;;;;;3.03;0.50;;;21.30;58.20;;;;;;6338828;22;20184;-87
2023/09/07 02:36:48;;;;;;;0.50;0.50;;;21.30;58.20;;;;;;6338420;22;20184;-87
2023/09/07 02:39:17;;;;;;;1.07;0.67;;;21.30;58.30;;;;;;6334019;22;20231;-84
2023/09/07 02:41:46;;;;;;;1.03;0.60;;;21.20;58.40;;;;;;6337870;22;20239;-87
2023/09/07 02:44:16;;;;;;;1.87;0.40;;;21.20;58.50;;;;;;6337771;22;20214;-86
2023/09/07 02:46:44;;;;;;;0.27;0.27;;;21.20;58.70;;;;;;6339215;22;20191;-85
2023/09/07 02:49:13;;;;;;;0.50;0.40;;;21.10;58.60;;;;;;6307755;22;20537;-85
2023/09/07 02:51:42;;;;;;;1.33;0.50;;;21.10;58.70;;;;;;6338791;22;20169;-84
2023/09/07 02:54:11;;;;;;;0.47;0.47;;;21.10;58.80;;;;;;6337291;22;20255;-86
2023/09/07 02:56:39;;;;;;;0.53;0.50;;;21.10;58.90;;;;;;6337201;22;20172;-86
2023/09/07 02:59:08;;;;;;;0.97;0.50;;;21.00;59.00;;;;;;6335887;22;20208;-86
2023/09/07 03:01:40;;;;;;;0.57;0.57;;;21.00;59.00;;;;;;6336905;22;20168;-84
2023/09/07 03:04:08;;;;;;;0.30;0.30;;;21.00;59.10;;;;;;6335974;22;20165;-86
2023/09/07 03:06:37;;;;;;;3.93;1.73;;;21.00;59.10;;;;;;6339185;22;20175;-85
2023/09/07 03:09:08;;;;;;;0.20;0.20;;;21.00;59.20;;;;;;6336626;22;20545;-84
2023/09/07 03:11:37;;;;;;;0.83;0.63;;;20.90;59.40;;;;;;6337865;22;20617;-85
2023/09/07 03:14:06;;;;;;;0.20;0.20;;;20.90;59.40;;;;;;6337728;22;20243;-86
2023/09/07 03:16:34;;;;;;;0.60;0.60;;;20.90;59.40;;;;;;6337738;22;20689;-85
2023/09/07 03:19:05;;;;;;;0.60;0.50;;;20.90;59.60;;;;;;6336145;22;20227;-86
2023/09/07 03:21:34;;;;;;;0.40;0.40;;;20.90;59.70;;;;;;6337481;22;20173;-84
2023/09/07 03:24:02;;;;;;;0.70;0.60;;;20.90;59.90;;;;;;6311284;22;20166;-84
2023/09/07 03:26:31;;;;;;;0.30;0.30;;;20.90;60.10;;;;;;6311108;22;20179;-85
2023/09/07 03:29:00;;;;;;;0.40;0.40;;;20.90;60.10;;;;;;6336768;22;20165;-86
2023/09/07 03:31:29;;;;;;;0.30;0.30;;;20.80;59.90;;;;;;6337903;22;20656;-83
2023/09/07 03:33:57;;;;;;;2.53;0.83;;;20.80;59.90;;;;;;6337285;22;20503;-84
2023/09/07 03:36:28;;;;;;;0.30;0.30;;;20.80;60.20;;;;;;6335987;22;20171;-84
2023/09/07 03:38:56;;;;;;;2.10;0.83;;;20.80;60.10;;;;;;6336177;22;20199;-84
2023/09/07 03:41:30;;;;;;;3.23;1.17;;;20.80;60.20;;;;;;6336395;22;20654;-85
2023/09/07 03:43:59;;;;;;;0.53;0.53;;;20.70;60.40;;;;;;6336546;22;20152;-84
2023/09/07 03:46:27;;;;;;;1.07;0.60;;;20.70;60.20;;;;;;6310679;22;20164;-85
2023/09/07 03:48:56;;;;;;;0.70;0.70;;;20.70;60.10;;;;;;6335856;22;20226;-86
2023/09/07 03:51:25;;;;;;;0.30;0.30;;;20.70;60.20;;;;;;6337049;22;20677;-85
2023/09/07 03:53:55;;;;;;;0.50;0.50;;;20.70;60.30;;;;;;6334523;22;20172;-86
2023/09/07 03:56:23;;;;;;;1.70;0.83;;;20.70;60.40;;;;;;6336315;22;20168;-86
2023/09/07 03:58:52;;;;;;;0.40;0.40;;;20.70;60.50;;;;;;6336812;22;20551;-85
2023/09/07 04:01:20;;;;;;;0.47;0.40;;;20.70;60.50;;;;;;6336880;22;20271;-85
2023/09/07 04:03:50;;;;;;;1.50;0.70;;;20.70;60.40;;;;;;6337283;22;20170;-85
2023/09/07 04:06:19;;;;;;;0.40;0.40;;;20.60;60.50;;;;;;6335826;22;20172;-84
2023/09/07 04:08:48;;;;;;;0.27;0.27;;;20.60;60.50;;;;;;6335557;22;20200;-84
2023/09/07 04:11:18;;;;;;;0.50;0.30;;;20.70;60.80;;;;;;6336433;22;20187;-85
2023/09/07 04:13:47;;;;;;;0.47;0.40;;;20.60;60.70;;;;;;6307121;22;20163;-86
2023/09/07 04:16:15;;;;;;;0.20;0.20;;;20.60;60.80;;;;;;6334095;22;20230;-85
2023/09/07 04:18:44;;;;;;;1.50;0.83;;;20.60;61.00;;;;;;6332950;22;20175;-83
2023/09/07 04:21:13;;;;;;;1.47;0.80;;;20.60;61.00;;;;;;6336662;22;20660;-83
2023/09/07 04:24:22;;;;;;;0.63;0.60;;;20.60;61.10;;;;;;6335367;22;20252;-83
2023/09/07 04:26:52;;;;;;;0.40;0.40;;;20.60;61.40;;;;;;6336930;22;20681;-85
2023/09/07 04:29:20;;;;;;;0.80;0.80;;;20.70;61.50;;;;;;6335547;22;20199;-85
2023/09/07 04:31:49;;;;;;;0.77;0.77;;;20.60;61.60;;;;;;6336577;22;20644;-85
2023/09/07 04:34:18;;;;;;;0.60;0.40;;;20.60;61.50;;;;;;6334600;22;20168;-83
2023/09/07 04:36:46;;;;;;;0.70;0.40;;;20.70;61.60;;;;;;6335647;22;20168;-86
2023/09/07 04:39:15;;;;;;;0.60;0.60;;;20.70;61.70;;;;;;6334303;22;20188;-84
2023/09/07 04:41:43;;;;;;;7.83;1.70;;;20.70;61.50;;;;;;6334137;22;20192;-85
2023/09/07 04:44:13;;;;;;;0.50;0.50;;;20.70;61.70;;;;;;6337476;22;20385;-90
2023/09/07 04:46:42;;;;;;;1.30;0.68;;;20.80;61.80;;;;;;6312107;22;20161;-89
2023/09/07 04:49:13;;;;;;;0.30;0.30;;;20.80;61.90;;;;;;6337558;22;20173;-89
2023/09/07 04:51:41;;;;;;;0.27;0.27;;;20.80;61.80;;;;;;6335810;22;20642;-90
2023/09/07 04:54:10;;;;;;;0.63;0.63;;;20.80;62.00;;;;;;6335291;22;20183;-84
2023/09/07 04:56:38;;;;;;;0.73;0.43;;;20.80;61.90;;;;;;6336559;22;20164;-82
2023/09/07 04:59:07;;;;;;;4.03;1.10;;;20.90;62.00;;;;;;6335551;22;20160;-83
2023/09/07 05:01:39;;;;;;;2.50;0.40;;;20.90;62.00;;;;;;6339046;22;20192;-84
2023/09/07 05:04:08;;;;;;;0.43;0.43;;;20.90;61.70;;;;;;6336954;22;20185;-84
2023/09/07 05:17:59;;;;;;;0.57;0.57;;;21.20;62.00;;;;;;6280895;22;20233;-87
2023/09/07 05:20:32;;;;;;;0.40;0.40;;;21.30;62.00;;;;;;6336353;22;20276;-84
2023/09/07 05:23:01;;;;;;;10.45;1.15;;;21.40;61.90;;;;;;6284282;22;20232;-84
2023/09/07 05:25:29;;;;;;;0.47;0.47;;;21.40;62.00;;;;;;6309583;22;20173;-85
2023/09/07 05:28:02;;;;;;;0.52;0.52;;;21.50;62.20;;;;;;6334835;22;20165;-85
2023/09/07 05:30:31;;;;;;;0.38;0.38;;;21.60;62.10;;;;;;6308087;22;20202;-85
2023/09/07 05:33:01;;;;;;;0.38;0.38;;;21.70;62.40;;;;;;6336482;22;20168;-85
2023/09/07 05:35:32;;;;;;;0.70;0.70;;;21.70;62.20;;;;;;6334605;22;20697;-82
2023/09/07 05:38:06;;;;;;;0.85;0.63;;;21.80;62.10;;;;;;6336988;22;20464;-84
2023/09/07 05:40:36;;;;;;;0.32;0.32;;;21.90;61.70;;;;;;6337161;22;20183;-86
2023/09/07 05:43:06;;;;;;;0.30;0.30;;;22.00;61.00;;;;;;6338444;22;20214;-85
2023/09/07 05:45:37;;;;;;;1.02;0.70;;;22.10;61.00;;;;;;6337262;22;20625;-86
2023/09/07 05:48:08;;;;;;;1.10;0.40;;;22.20;60.80;;;;;;6335636;22;20149;-83
2023/09/07 05:50:39;;;;;;;0.52;0.52;;;22.30;60.50;;;;;;6334560;22;20494;-83
2023/09/07 05:53:08;;;;;;;0.35;0.35;;;22.40;59.60;;;;;;6336384;22;20152;-82
2023/09/07 05:55:37;;;;;;;0.50;0.50;;;22.50;59.40;;;;;;6336178;22;20751;-86
2023/09/07 05:58:07;;;;;;;0.73;0.60;;;22.50;59.30;;;;;;6337464;22;20161;-87
2023/09/07 06:00:37;;;;;;;0.73;0.50;;;22.60;59.40;;;;;;6336039;22;20177;-84
2023/09/07 06:03:09;;;;;;;1.10;0.82;;;22.70;59.20;;;;;;6336239;22;20168;-85
2023/09/07 06:05:39;;;;;;;0.85;0.43;;;22.80;58.90;;;;;;6311896;22;20176;-82
2023/09/07 06:08:08;;;;;;;0.73;0.60;;;22.90;58.80;;;;;;6337213;22;20165;-83
2023/09/07 06:10:38;;;;;;;0.40;0.40;;;23.00;58.90;;;;;;6337387;22;20416;-83
2023/09/07 06:13:06;;;;;;;0.50;0.50;;;23.10;58.80;;;;;;6338225;22;20168;-83
2023/09/07 06:15:35;;;;;;;0.20;0.20;;;23.10;59.40;;;;;;6338695;22;20164;-85
2023/09/07 06:18:04;;;;;;;1.40;0.25;;;23.20;58.50;;;;;;6336878;22;20235;-85
2023/09/07 06:20:36;;;;;;;0.98;0.55;;;23.30;58.50;;;;;;6309973;22;20152;-85
2023/09/07 06:23:05;;;;;;;2.35;0.63;;;23.40;58.30;;;;;;6338759;22;20207;-84
2023/09/07 06:25:33;;;;;;;0.93;0.90;;;23.50;58.20;;;;;;6335452;22;20631;-85
2023/09/07 06:28:02;;;;;;;0.50;0.50;;;23.50;58.00;;;;;;6338419;22;20173;-85
2023/09/07 06:30:30;;;;;;;0.50;0.50;;;23.60;57.70;;;;;;6337828;22;20529;-86
2023/09/07 06:33:02;;;;;;;0.47;0.47;;;23.70;57.80;;;;;;6338174;22;20255;-85
2023/09/07 06:35:30;;;;;;;0.30;0.30;;;23.80;57.90;;;;;;6337163;22;20157;-84
2023/09/07 06:38:01;;;;;;;0.60;0.60;;;24.00;57.80;;;;;;6338006;22;20618;-85
2023/09/07 06:40:31;;;;;;;0.60;0.60;;;24.00;57.60;;;;;;6338642;22;20164;-85
2023/09/07 06:43:04;;;;;;;3.60;1.08;;;24.10;57.10;;;;;;6337920;22;20192;-84
2023/09/07 06:45:36;;;;;;;0.68;0.32;;;24.30;57.30;;;;;;6339015;22;20167;-84
2023/09/07 06:48:05;;;;;;;0.30;0.30;;;24.40;57.40;;;;;;6337472;22;20240;-83
2023/09/07 06:50:33;;;;;;;0.90;0.57;;;24.50;57.20;;;;;;6337837;22;20247;-85
2023/09/07 06:53:03;;;;;;;0.50;0.50;;;24.60;57.20;;;;;;6336638;22;20175;-83
2023/09/07 06:55:32;;;;;;;0.55;0.55;;;24.70;57.00;;;;;;6338608;22;20512;-83
2023/09/07 06:58:01;;;;;;;1.10;0.65;;;24.80;56.80;;;;;;6337876;22;20172;-86
2023/09/07 07:00:29;;;;;;;1.05;0.77;;;24.90;56.50;;;;;;6337326;22;20170;-84
2023/09/07 07:02:58;;;;;;;0.57;0.57;;;25.00;56.50;;;;;;6335781;22;20196;-86
2023/09/07 07:05:29;;;;;;;0.60;0.60;;;25.20;56.40;;;;;;6338239;22;20192;-84
2023/09/07 07:07:57;;;;;;;0.52;0.50;;;25.20;56.40;;;;;;6336262;22;20183;-85
2023/09/07 07:10:27;;;;;;;0.20;0.20;;;25.30;55.90;;;;;;6309698;22;20283;-83
2023/09/07 07:12:56;;;;;;;0.50;0.50;;;25.40;55.60;;;;;;6337470;22;20602;-84
2023/09/07 07:15:24;;;;;;;0.20;0.20;;;25.40;55.40;;;;;;6337704;22;20164;-87
2023/09/07 07:17:53;;;;;;;1.48;0.57;;;25.40;55.10;;;;;;6337374;22;20219;-86
2023/09/07 07:20:21;;;;;;;0.30;0.30;;;25.50;55.10;;;;;;6337584;22;20184;-83
2023/09/07 07:22:50;;;;;;;1.45;0.77;;;25.50;54.50;;;;;;6338029;22;20200;-83
2023/09/07 07:25:18;;;;;;;1.20;0.40;;;25.50;54.70;;;;;;6337103;22;20632;-83
2023/09/07 07:27:48;;;;;;;0.47;0.45;;;25.60;54.70;;;;;;6338136;22;20164;-83
2023/09/07 07:30:17;;;;;;;1.75;1.25;;;25.60;54.60;;;;;;6310595;22;20171;-83
2023/09/07 07:32:46;;;;;;;0.68;0.68;;;25.60;54.50;;;;;;6337729;22;20669;-85
2023/09/07 07:35:15;;;;;;;0.75;0.63;;;25.60;54.50;;;;;;6336742;22;20173;-83
2023/09/07 07:37:43;;;;;;;0.50;0.50;;;25.60;54.60;;;;;;6338473;22;20214;-84
2023/09/07 07:40:14;;;;;;;0.22;0.22;;;25.60;54.70;;;;;;6337428;22;20191;-84
2023/09/07 07:42:42;;;;;;;0.50;0.50;;;25.70;54.90;;;;;;6335772;22;20184;-84
2023/09/07 07:45:13;;;;;;;0.50;0.50;;;25.80;55.00;;;;;;6338079;22;20165;-83
2023/09/07 07:47:42;;;;;;;0.30;0.30;;;25.80;54.70;;;;;;6337565;22;20168;-83
2023/09/07 07:50:11;;;;;;;0.32;0.30;;;25.80;54.80;;;;;;6337989;22;20172;-81
2023/09/07 07:52:42;;;;;;;0.75;0.60;;;25.90;54.40;;;;;;6338134;22;20695;-83
2023/09/07 07:55:11;;;;;;;1.90;0.65;;;25.90;53.40;;;;;;6337133;22;20176;-83
2023/09/07 07:57:40;;;;;;;0.55;0.40;;;26.00;53.90;;;;;;6336572;22;20213;-82
2023/09/07 08:00:10;;;;;;;0.35;0.35;;;26.00;53.90;;;;;;6337200;22;20188;-84
2023/09/07 08:02:40;;;;;;;1.02;0.80;;;26.10;53.60;;;;;;6337860;22;20267;-83
2023/09/07 08:05:08;;;;;;;0.45;0.45;;;26.20;53.30;;;;;;6336659;22;20160;-85
2023/09/07 08:07:37;;;;;;;1.30;0.60;;;26.20;53.10;;;;;;6337611;22;20165;-83
2023/09/07 08:10:07;;;;;;;0.40;0.40;;;26.30;52.30;;;;;;6336703;22;20601;-83
2023/09/07 08:12:35;;;;;;;1.95;0.95;;;26.40;52.60;;;;;;6338454;22;20632;-84
2023/09/07 08:15:04;;;;;;;0.38;0.38;;;26.50;52.70;;;;;;6338393;22;20175;-84
2023/09/07 08:17:33;;;;;;;1.00;0.90;;;26.60;52.80;;;;;;6337192;22;20164;-85
2023/09/07 08:20:04;;;;;;;5.88;1.42;;;26.70;52.60;;;;;;6337382;22;20159;-85
2023/09/07 08:22:35;;;;;;;0.75;0.75;;;26.80;52.40;;;;;;6336658;22;20279;-83
2023/09/07 08:25:04;;;;;;;1.05;0.63;;;26.90;52.20;;;;;;6336309;22;20196;-82
2023/09/07 08:27:32;;;;;;;0.85;0.70;;;26.90;51.80;;;;;;6335682;22;20178;-85
2023/09/07 08:30:01;;;;;;;0.68;0.35;;;27.00;51.50;;;;;;6334783;22;20172;-84
2023/09/07 08:32:30;;;;;;;1.75;0.57;;;27.10;51.70;;;;;;6335723;22;20497;-84
2023/09/07 08:35:01;;;;;;;2.80;0.85;;;27.10;51.00;;;;;;6334820;22;20171;-86
2023/09/07 08:37:31;;;;;;;0.30;0.30;;;27.10;50.70;;;;;;6336087;22;20157;-85
2023/09/07 08:39:59;;;;;;;6.43;0.52;;;27.20;50.80;;;;;;6334710;22;20195;-83
2023/09/07 08:42:28;;;;;;;1.75;0.52;;;27.20;50.40;;;;;;6334901;22;20184;-82
2023/09/07 08:45:03;;;;;;;12.25;0.90;;;27.20;50.50;;;;;;6333803;22;20172;-82
2023/09/07 08:47:32;;;;;;;0.32;0.32;;;27.30;50.50;;;;;;6333627;22;20254;-81
2023/09/07 08:50:00;;;;;;;0.40;0.40;;;27.30;50.70;;;;;;6335071;22;20168;-83
2023/09/07 08:52:31;;;;;;;0.20;0.20;;;27.40;51.10;;;;;;6306506;22;20622;-81
2023/09/07 08:55:00;;;;;;;0.30;0.30;;;27.40;50.60;;;;;;6334917;22;20175;-84
2023/09/07 08:57:31;;;;;;;0.60;0.57;;;27.40;50.20;;;;;;6304947;22;20203;-82
2023/09/07 09:00:00;;;;;;;0.30;0.30;;;27.50;50.20;;;;;;6333045;22;20187;-84
2023/09/07 09:02:29;;;;;;;0.80;0.80;;;27.60;50.20;;;;;;6335250;22;20192;-83
2023/09/07 09:04:58;;;;;;;0.30;0.30;;;27.60;49.70;;;;;;6337844;22;20191;-82
2023/09/07 09:07:27;;;;;;;1.02;0.95;;;27.70;49.20;;;;;;6335546;22;20179;-81
2023/09/07 09:10:06;;;;;;;0.22;0.22;;;27.70;49.10;;;;;;6335818;22;20176;-83
2023/09/07 09:12:34;;;;;;;0.43;0.30;;;27.80;49.60;;;;;;6336686;22;20160;-82
2023/09/07 09:15:03;;;;;;;0.45;0.35;;;27.80;49.40;;;;;;6336112;22;20168;-84
2023/09/07 09:17:31;;;;;;;1.00;0.35;;;27.90;49.40;;;;;;6338143;22;20168;-82
2023/09/07 09:20:00;;;;;;;0.30;0.30;;;27.90;48.80;;;;;;6340111;22;20618;-83
2023/09/07 09:22:31;;;;;;;1.15;0.60;;;28.00;49.10;;;;;;6334527;22;20189;-82
2023/09/07 09:25:05;;;;;;;0.40;0.40;;;28.00;48.60;;;;;;6335910;22;20601;-85
2023/09/07 09:27:34;;;;;;;0.30;0.25;;;28.00;47.30;;;;;;6338300;22;20152;-84
2023/09/07 09:30:04;;;;;;;0.52;0.40;;;28.10;48.30;;;;;;6338090;22;20641;-83
2023/09/07 09:32:33;;;;;;;0.60;0.50;;;28.10;48.40;;;;;;6338218;22;20169;-83
2023/09/07 09:35:05;;;;;;;0.60;0.60;;;28.10;48.00;;;;;;6337158;22;20244;-83
2023/09/07 09:37:34;;;;;;;0.45;0.40;;;28.20;48.20;;;;;;6338734;22;20156;-85
2023/09/07 09:40:10;;;;;;;2.17;1.15;;;28.30;48.60;;;;;;6284859;22;20724;-84
2023/09/07 09:42:39;;;;;;;0.75;0.75;;;28.30;48.40;;;;;;6337744;22;20180;-80
2023/09/07 09:45:09;;;;;;;0.40;0.30;;;28.40;48.30;;;;;;6338985;22;20194;-83
2023/09/07 09:47:49;;;;;;;0.90;0.52;;;28.40;48.50;;;;;;6337552;22;20230;-83
2023/09/07 09:50:19;;;;;;;1.00;0.95;;;28.40;48.20;;;;;;6337863;22;20163;-82
2023/09/07 09:52:49;;;;;;;2.70;0.68;;;28.50;48.40;;;;;;6336961;22;20177;-81
2023/09/07 09:55:19;;;;;;;0.35;0.35;;;28.50;48.10;;;;;;6311114;22;20172;-83
2023/09/07 09:57:49;;;;;;;0.40;0.30;;;28.40;47.90;;;;;;6338067;22;20156;-83
2023/09/07 10:00:26;;;;;;;0.63;0.55;;;28.50;48.10;;;;;;6335893;22;20613;-82
2023/09/07 10:03:02;;;;;;;0.32;0.30;;;28.50;47.90;;;;;;6338171;22;20624;-82
2023/09/07 10:05:32;;;;;;;0.50;0.50;;;28.50;48.00;;;;;;6339304;22;20153;-82
2023/09/07 10:08:05;;;;;;;0.63;0.40;;;28.50;48.10;;;;;;6337204;22;20168;-82
2023/09/07 10:10:37;;;;;;;1.00;0.52;;;28.50;47.70;;;;;;6336103;22;20606;-83
2023/09/07 10:13:06;;;;;;;0.30;0.30;;;28.50;47.80;;;;;;6339042;22;20157;-83
2023/09/07 10:15:36;;;;;;;1.08;0.93;;;28.50;48.00;;;;;;6336914;22;20164;-81
2023/09/07 10:18:06;;;;;;;0.40;0.40;;;28.60;48.20;;;;;;6338641;22;20192;-81
2023/09/07 10:20:52;;;;;;;0.35;0.30;;;28.70;48.20;;;;;;6337100;22;20169;-82
2023/09/07 10:23:21;;;;;;;0.30;0.30;;;28.70;47.60;;;;;;6336033;22;20214;-79
2023/09/07 10:25:52;;;;;;;1.70;0.40;;;28.70;47.70;;;;;;6338623;22;20195;-82
2023/09/07 10:28:22;;;;;;;0.63;0.63;;;28.80;47.80;;;;;;6339080;22;20206;-81
2023/09/07 10:31:05;;;;;;;1.15;0.90;;;28.80;47.40;;;;;;6354044;22;20183;-81
2023/09/07 10:33:34;;;;;;;0.95;0.70;;;28.80;47.40;;;;;;6359949;22;20172;-81
2023/09/07 10:36:04;;;;;;;0.50;0.50;;;28.80;48.00;;;;;;6359626;22;20165;-83
2023/09/07 10:38:33;;;;;;;0.60;0.60;;;28.80;47.60;;;;;;6353597;22;20171;-83
2023/09/07 10:41:05;;;;;;;0.68;0.40;;;28.80;47.40;;;;;;6355329;22;20251;-82
2023/09/07 10:43:34;;;;;;;1.00;0.35;;;28.80;47.40;;;;;;6350390;22;20184;-82
2023/09/07 10:46:03;;;;;;;0.38;0.38;;;28.80;47.50;;;;;;6338801;22;20192;-82
2023/09/07 10:48:32;;;;;;;1.20;0.93;;;28.80;47.00;;;;;;6339375;22;20272;-80
2023/09/07 10:51:02;;;;;;;0.60;0.50;;;28.80;47.00;;;;;;6338733;22;20211;-82
2023/09/07 10:53:32;;;;;;;8.48;0.80;;;28.90;46.80;;;;;;6340326;22;20168;-83
2023/09/07 10:56:05;;;;;;;0.50;0.35;;;28.90;47.10;;;;;;6337640;22;20160;-82
2023/09/07 10:58:35;;;;;;;0.35;0.32;;;29.00;47.30;;;;;;6337960;22;20161;-82
2023/09/07 11:01:04;;;;;;;1.45;0.95;;;29.00;47.40;;;;;;6338301;22;20165;-83
2023/09/07 11:03:33;;;;;;;0.30;0.30;;;29.10;47.40;;;;;;6337500;22;20513;-85
2023/09/07 11:06:05;;;;;;;0.43;0.35;;;29.20;46.80;;;;;;6336446;22;20164;-85
2023/09/07 11:08:34;;;;;;;0.60;0.52;;;29.20;46.80;;;;;;6337191;22;20609;-82
2023/09/07 11:11:04;;;;;;;2.35;0.70;;;29.30;47.00;;;;;;6335188;22;20172;-83
2023/09/07 11:13:35;;;;;;;4.15;0.52;;;29.40;46.90;;;;;;6333806;22;20279;-83
2023/09/07 11:16:04;;;;;;;15.32;0.43;;;29.40;46.50;;;;;;6336023;22;20160;-83
2023/09/07 11:18:35;;;;;;;0.60;0.60;;;29.50;46.50;;;;;;6334671;22;20222;-83
2023/09/07 11:21:04;;;;;;;1.05;0.70;;;29.50;46.20;;;;;;6337304;22;20157;-84
2023/09/07 11:23:37;;;;;;;3.90;1.17;;;29.50;46.00;;;;;;6336842;22;20207;-82
2023/09/07 11:26:09;;;;;;;0.68;0.50;;;29.60;46.10;;;;;;6336641;22;20472;-83
2023/09/07 11:28:39;;;;;;;0.40;0.40;;;29.60;45.90;;;;;;6336434;22;20617;-84
2023/09/07 11:31:07;;;;;;;0.90;0.50;;;29.70;46.20;;;;;;6337228;22;20169;-83
2023/09/07 11:33:36;;;;;;;1.02;0.38;;;29.70;45.90;;;;;;6337190;22;20172;-82
2023/09/07 11:36:04;;;;;;;0.30;0.30;;;29.70;45.90;;;;;;6335051;22;20636;-83
2023/09/07 11:38:37;;;;;;;0.20;0.20;;;29.80;46.00;;;;;;6337620;22;20407;-83
2023/09/07 11:41:07;;;;;;;0.38;0.30;;;29.80;45.40;;;;;;6335624;22;20165;-83
2023/09/07 11:43:37;;;;;;;0.40;0.40;;;29.90;44.80;;;;;;6336480;22;20653;-85
2023/09/07 11:46:07;;;;;;;3.65;0.68;;;29.90;45.00;;;;;;6336214;22;20175;-84
2023/09/07 11:48:39;;;;;;;0.20;0.20;;;30.00;44.80;;;;;;6334263;22;20160;-84
2023/09/07 11:51:08;;;;;;;3.88;0.70;;;30.10;44.90;;;;;;6337035;22;20168;-83
2023/09/07 11:53:37;;;;;;;1.75;0.52;;;30.00;45.10;;;;;;6335634;22;20489;-83
2023/09/07 11:56:07;;;;;;;0.30;0.30;;;30.10;45.20;;;;;;6333879;22;20247;-83
2023/09/07 11:58:36;;;;;;;0.43;0.40;;;30.20;45.30;;;;;;6335084;22;20164;-83
2023/09/07 12:01:06;;;;;;;0.55;0.50;;;30.20;45.20;;;;;;6334472;22;20230;-84
2023/09/07 12:03:34;;;;;;;0.52;0.52;;;30.20;44.70;;;;;;6336703;22;20681;-83
2023/09/07 12:06:04;;;;;;;0.55;0.40;;;30.20;44.60;;;;;;6335960;22;20168;-84
2023/09/07 12:08:32;;;;;;;0.52;0.50;;;30.30;44.40;;;;;;6336007;22;20171;-84
2023/09/07 12:11:01;;;;;;;0.55;0.50;;;30.20;44.10;;;;;;6336038;22;20168;-84
2023/09/07 12:13:31;;;;;;;0.68;0.65;;;30.30;43.90;;;;;;6335689;22;20633;-84
2023/09/07 12:16:02;;;;;;;1.83;0.63;;;30.30;44.30;;;;;;6336296;22;20164;-85
2023/09/07 12:18:30;;;;;;;1.30;0.93;;;30.30;44.20;;;;;;6307361;22;20219;-84
2023/09/07 12:20:59;;;;;;;0.20;0.20;;;30.30;44.30;;;;;;6336329;22;20194;-85
2023/09/07 12:23:27;;;;;;;0.50;0.50;;;30.30;44.20;;;;;;6335664;22;20910;-84
2023/09/07 12:25:56;;;;;;;1.40;1.05;;;30.30;43.70;;;;;;6336337;22;20254;-81
2023/09/07 12:28:24;;;;;;;2.08;0.50;;;30.30;43.30;;;;;;6332291;22;20175;-83
2023/09/07 12:30:54;;;;;;;1.38;0.38;;;30.20;42.60;;;;;;6336155;22;20168;-84
2023/09/07 12:33:23;;;;;;;1.23;1.10;;;30.30;43.20;;;;;;6335597;22;20174;-86
2023/09/07 12:35:51;;;;;;;0.43;0.43;;;30.30;43.60;;;;;;6336739;22;20170;-85
2023/09/07 12:38:22;;;;;;;0.30;0.30;;;30.40;43.90;;;;;;6335969;22;20168;-83
2023/09/07 12:40:50;;;;;;;0.52;0.52;;;30.40;43.70;;;;;;6337063;22;20175;-83
2023/09/07 12:43:19;;;;;;;0.63;0.63;;;30.40;43.80;;;;;;6335729;22;20511;-83
2023/09/07 12:45:47;;;;;;;0.20;0.20;;;30.50;43.80;;;;;;6337048;22;20188;-84
2023/09/07 12:48:17;;;;;;;1.13;0.82;;;30.50;43.90;;;;;;6335213;22;20164;-83
2023/09/07 12:50:45;;;;;;;0.20;0.20;;;30.50;43.00;;;;;;6334204;22;20482;-86
2023/09/07 12:53:49;;;;;;;4.35;1.88;;;30.50;43.30;;;;;;6331612;22;20164;-85
2023/09/07 12:56:21;;;;;;;0.35;0.35;;;30.50;42.10;;;;;;6336936;22;20210;-83
2023/09/07 12:58:52;;;;;;;1.38;0.63;;;30.40;41.80;;;;;;6335569;22;20165;-86
2023/09/07 13:02:26;;;;;;;;;;;;;;;;;;;;;
2023/09/07 13:05:49;;;;;;;0.60;0.45;;;30.50;42.30;;;;;;6332665;22;20202;-83
2023/09/07 13:12:37;;;;;;;0.20;0.20;;;30.50;42.10;;;;;;6224140;22;20177;-82
2023/09/07 13:15:43;;;;;;;0.77;0.77;;;30.60;42.50;;;;;;6239654;23;20170;-85
2023/09/07 13:18:58;;;;;;;1.52;1.10;;;30.60;42.40;;;;;;6309936;22;20673;-81
2023/09/07 13:22:12;;;;;;;;;;;;;;;;;;;;;